Time;durP1;ratioP1;P1;durP2;ratioP2;P2;SDS_P1;SDS_P2;PMS_P1;PMS_P2;Temp;Humidity;BMP_temperature;BMP_pressure;BME280_temperature;BME280_humidity;BME280_pressure;Samples;Min_cycle;Max_cycle;Signal;HPM_P1;HPM_P2
2023/05/14 00:01:50;;;;;;;31.17;20.07;;;;;;;;;;5052921;28;20477;-60
2023/05/14 00:04:18;;;;;;;34.77;20.37;;;;;;;;;;5052740;28;20053;-60
2023/05/14 00:06:44;;;;;;;30.57;20.70;;;;;;;;;;5052772;28;20059;-60
2023/05/14 00:09:11;;;;;;;35.70;23.47;;;;;;;;;;5052375;28;20041;-60
2023/05/14 00:11:37;;;;;;;40.30;22.90;;;;;;;;;;5052056;28;20079;-60
2023/05/14 00:14:03;;;;;;;37.27;23.70;;;;;;;;;;5052102;28;20414;-60
2023/05/14 00:16:29;;;;;;;40.97;23.77;;;;;;;;;;5052601;28;20053;-61
2023/05/14 00:18:55;;;;;;;44.97;23.47;;;;;;;;;;5052597;28;20049;-60
2023/05/14 00:21:21;;;;;;;35.67;20.97;;;;;;;;;;5052825;28;20487;-60
2023/05/14 00:23:47;;;;;;;40.47;23.37;;;;;;;;;;5052462;28;20497;-61
2023/05/14 00:26:13;;;;;;;34.90;21.83;;;;;;;;;;5052308;28;20055;-61
2023/05/14 00:28:39;;;;;;;32.60;22.87;;;;;;;;;;5050861;28;20041;-60
2023/05/14 00:31:05;;;;;;;43.60;23.13;;;;;;;;;;5032247;28;20049;-60
2023/05/14 00:33:32;;;;;;;38.87;24.17;;;;;;;;;;5031669;28;20099;-61
2023/05/14 00:35:58;;;;;;;38.00;23.07;;;;;;;;;;5032442;28;20056;-60
2023/05/14 00:38:26;;;;;;;45.87;25.80;;;;;;;;;;5040728;28;20059;-60
2023/05/14 00:40:52;;;;;;;43.60;25.17;;;;;;;;;;5039730;28;20127;-61
2023/05/14 00:43:19;;;;;;;40.50;24.47;;;;;;;;;;5050246;28;20041;-61
2023/05/14 00:45:45;;;;;;;43.97;24.30;;;;;;;;;;5037454;28;20044;-60
2023/05/14 00:48:12;;;;;;;41.00;23.93;;;;;;;;;;5051919;28;20087;-60
2023/05/14 00:50:38;;;;;;;44.97;27.10;;;;;;;;;;5051996;28;20170;-60
2023/05/14 00:53:09;;;;;;;36.73;22.83;;;;;;;;;;5052735;28;20045;-60
2023/05/14 00:55:35;;;;;;;42.07;25.07;;;;;;;;;;5051675;28;20263;-60
2023/05/14 00:58:02;;;;;;;42.67;26.43;;;;;;;;;;5051631;28;20041;-60
2023/05/14 01:00:28;;;;;;;51.57;26.57;;;;;;;;;;5050887;28;20056;-61
2023/05/14 01:02:54;;;;;;;43.03;24.03;;;;;;;;;;5031114;28;20045;-60
2023/05/14 01:05:22;;;;;;;48.73;26.07;;;;;;;;;;5031696;28;20045;-60
2023/05/14 01:08:14;;;;;;;41.57;25.47;;;;;;;;;;5031461;28;20103;-60
2023/05/14 01:10:48;;;;;;;40.03;23.40;;;;;;;;;;5030587;28;20049;-60
2023/05/14 01:13:14;;;;;;;38.80;24.10;;;;;;;;;;5031503;28;20427;-60
2023/05/14 01:15:41;;;;;;;40.20;25.33;;;;;;;;;;5031659;28;20049;-60
2023/05/14 01:18:09;;;;;;;44.20;25.57;;;;;;;;;;5031850;28;20128;-60
2023/05/14 01:20:35;;;;;;;46.73;27.90;;;;;;;;;;5031040;28;20064;-60
2023/05/14 01:23:02;;;;;;;43.00;24.10;;;;;;;;;;5031347;28;20451;-60
2023/05/14 01:25:28;;;;;;;41.87;25.40;;;;;;;;;;5031124;28;20120;-60
2023/05/14 01:27:57;;;;;;;46.43;23.17;;;;;;;;;;5030291;28;20048;-60
2023/05/14 01:30:34;;;;;;;45.30;25.60;;;;;;;;;;5031088;28;20090;-60
2023/05/14 01:33:02;;;;;;;44.73;24.07;;;;;;;;;;5030486;28;20099;-61
2023/05/14 01:35:29;;;;;;;42.20;24.37;;;;;;;;;;5036946;28;20463;-60
2023/05/14 01:37:57;;;;;;;51.07;27.80;;;;;;;;;;5039919;28;20559;-60
2023/05/14 01:40:23;;;;;;;49.77;28.07;;;;;;;;;;5034674;28;20045;-61
2023/05/14 01:42:50;;;;;;;52.40;28.00;;;;;;;;;;5041942;28;20067;-60
2023/05/14 01:45:17;;;;;;;52.57;27.37;;;;;;;;;;5031091;28;20050;-60
2023/05/14 01:47:43;;;;;;;47.07;27.53;;;;;;;;;;5037861;28;20128;-60
2023/05/14 01:50:09;;;;;;;50.30;28.63;;;;;;;;;;5033897;28;20037;-61
2023/05/14 01:52:35;;;;;;;53.73;27.87;;;;;;;;;;5050687;28;20052;-60
2023/05/14 01:55:02;;;;;;;52.27;29.80;;;;;;;;;;5031933;28;20045;-60
2023/05/14 01:57:28;;;;;;;59.20;29.87;;;;;;;;;;5030477;28;20056;-61
2023/05/14 01:59:54;;;;;;;61.37;31.40;;;;;;;;;;5029903;28;20069;-60
2023/05/14 02:02:21;;;;;;;55.00;28.30;;;;;;;;;;5037290;28;20068;-60
2023/05/14 02:04:47;;;;;;;54.90;30.77;;;;;;;;;;5050422;28;20243;-60
2023/05/14 02:07:13;;;;;;;55.33;30.17;;;;;;;;;;5037613;28;20049;-60
2023/05/14 02:09:39;;;;;;;57.90;30.23;;;;;;;;;;5030280;28;20526;-60
2023/05/14 02:12:06;;;;;;;63.30;32.43;;;;;;;;;;5046315;28;20052;-60
2023/05/14 02:14:32;;;;;;;61.97;31.17;;;;;;;;;;5049106;28;20094;-60
2023/05/14 02:16:58;;;;;;;66.50;32.50;;;;;;;;;;5048738;28;20517;-60
2023/05/14 02:19:24;;;;;;;59.73;33.23;;;;;;;;;;5049888;28;20131;-60
2023/05/14 02:21:50;;;;;;;62.80;32.70;;;;;;;;;;5037456;28;20038;-60
2023/05/14 02:24:16;;;;;;;58.40;33.43;;;;;;;;;;5029182;28;20068;-61
2023/05/14 02:26:42;;;;;;;66.37;33.53;;;;;;;;;;5029993;28;20048;-61
2023/05/14 02:29:08;;;;;;;70.63;37.10;;;;;;;;;;5031156;28;20037;-60
2023/05/14 02:31:34;;;;;;;65.23;35.17;;;;;;;;;;5049107;28;20076;-60
2023/05/14 02:34:01;;;;;;;68.80;35.63;;;;;;;;;;5033041;28;20049;-60
2023/05/14 02:36:27;;;;;;;74.77;34.60;;;;;;;;;;5036232;28;20500;-60
2023/05/14 02:38:53;;;;;;;68.50;35.10;;;;;;;;;;5028803;28;21044;-60
2023/05/14 02:41:20;;;;;;;80.60;36.70;;;;;;;;;;5028634;28;20045;-60
2023/05/14 02:43:46;;;;;;;68.70;36.10;;;;;;;;;;5030248;28;20514;-60
2023/05/14 02:46:12;;;;;;;71.50;37.73;;;;;;;;;;5030381;28;20064;-60
2023/05/14 02:48:38;;;;;;;70.53;36.40;;;;;;;;;;5042649;28;20052;-60
2023/05/14 02:51:04;;;;;;;80.37;36.20;;;;;;;;;;5030393;28;20522;-60
2023/05/14 02:53:30;;;;;;;63.63;34.63;;;;;;;;;;5041309;28;20495;-60
2023/05/14 02:55:56;;;;;;;81.53;36.50;;;;;;;;;;5029764;28;20054;-60
2023/05/14 02:58:22;;;;;;;67.93;33.93;;;;;;;;;;5044183;28;20041;-60
2023/05/14 03:00:48;;;;;;;64.27;30.50;;;;;;;;;;5038917;28;20041;-60
2023/05/14 03:03:14;;;;;;;72.23;31.73;;;;;;;;;;5029051;28;20064;-61
2023/05/14 03:05:40;;;;;;;73.10;34.13;;;;;;;;;;5030074;28;20049;-61
2023/05/14 03:08:06;;;;;;;66.80;34.57;;;;;;;;;;5032017;28;20250;-60
2023/05/14 03:10:33;;;;;;;72.57;36.03;;;;;;;;;;5048702;28;20040;-60
2023/05/14 03:12:59;;;;;;;69.50;33.60;;;;;;;;;;5053531;28;20045;-60
2023/05/14 03:15:25;;;;;;;70.50;34.57;;;;;;;;;;5054013;28;20060;-60
2023/05/14 03:17:51;;;;;;;69.43;33.87;;;;;;;;;;5042033;28;20037;-60
2023/05/14 03:20:17;;;;;;;71.27;34.83;;;;;;;;;;5033905;28;20393;-60
2023/05/14 03:22:43;;;;;;;71.33;33.13;;;;;;;;;;5033472;28;20099;-60
2023/05/14 03:25:09;;;;;;;78.73;36.00;;;;;;;;;;5033683;28;20057;-60
2023/05/14 03:27:35;;;;;;;73.37;34.50;;;;;;;;;;5033877;28;20057;-60
2023/05/14 03:30:01;;;;;;;68.80;35.20;;;;;;;;;;5033696;28;20045;-60
2023/05/14 03:32:27;;;;;;;67.50;32.30;;;;;;;;;;5033028;28;20057;-60
2023/05/14 03:34:53;;;;;;;70.40;33.30;;;;;;;;;;5034181;28;20503;-60
2023/05/14 03:37:19;;;;;;;75.17;35.13;;;;;;;;;;5033710;28;20060;-60
2023/05/14 03:39:45;;;;;;;78.27;35.93;;;;;;;;;;5032916;28;20045;-60
2023/05/14 03:42:11;;;;;;;74.77;33.20;;;;;;;;;;5033448;28;20045;-60
2023/05/14 03:44:37;;;;;;;72.73;31.20;;;;;;;;;;5033540;28;20049;-60
2023/05/14 03:47:04;;;;;;;70.47;32.23;;;;;;;;;;5047705;28;20410;-60
2023/05/14 03:49:30;;;;;;;71.60;33.67;;;;;;;;;;5053377;28;20045;-61
2023/05/14 03:51:58;;;;;;;71.00;32.40;;;;;;;;;;5041317;28;20042;-60
2023/05/14 03:54:24;;;;;;;65.23;32.93;;;;;;;;;;5032620;28;20041;-60
2023/05/14 03:56:50;;;;;;;74.57;34.87;;;;;;;;;;5038776;28;20041;-60
2023/05/14 03:59:16;;;;;;;97.37;40.50;;;;;;;;;;5036929;28;20073;-60
2023/05/14 04:01:43;;;;;;;89.43;38.13;;;;;;;;;;5032681;28;20522;-60
2023/05/14 04:04:09;;;;;;;76.23;35.50;;;;;;;;;;5031495;28;20179;-60
2023/05/14 04:06:36;;;;;;;72.47;32.10;;;;;;;;;;5034104;28;20044;-60
2023/05/14 04:09:02;;;;;;;76.60;33.50;;;;;;;;;;5041800;28;20557;-60
2023/05/14 04:11:28;;;;;;;73.37;34.57;;;;;;;;;;5042683;28;20045;-60
2023/05/14 04:13:55;;;;;;;95.70;38.20;;;;;;;;;;5049584;28;20522;-60
2023/05/14 04:16:21;;;;;;;83.17;36.77;;;;;;;;;;5048190;28;20050;-60
2023/05/14 04:18:47;;;;;;;95.57;40.70;;;;;;;;;;5031081;28;20054;-61
2023/05/14 04:21:13;;;;;;;67.53;31.30;;;;;;;;;;5032083;28;20053;-60
2023/05/14 04:23:39;;;;;;;79.17;36.37;;;;;;;;;;5031159;28;20054;-60
2023/05/14 04:26:05;;;;;;;80.23;37.70;;;;;;;;;;5045150;28;20089;-60
2023/05/14 04:28:31;;;;;;;66.03;33.00;;;;;;;;;;5048659;28;20096;-60
2023/05/14 04:30:57;;;;;;;78.73;34.07;;;;;;;;;;5032100;28;20049;-60
2023/05/14 04:33:23;;;;;;;66.37;32.60;;;;;;;;;;5032291;28;20507;-60
2023/05/14 04:35:51;;;;;;;67.57;32.00;;;;;;;;;;5032395;28;20048;-60
2023/05/14 04:38:17;;;;;;;87.43;35.83;;;;;;;;;;5032017;28;20135;-60
2023/05/14 04:40:43;;;;;;;81.73;36.13;;;;;;;;;;5040625;28;20041;-60
2023/05/14 04:43:09;;;;;;;74.00;33.80;;;;;;;;;;5038358;28;20050;-60
2023/05/14 04:45:35;;;;;;;67.73;32.17;;;;;;;;;;5032119;28;20414;-61
2023/05/14 04:48:02;;;;;;;60.27;29.13;;;;;;;;;;5031799;28;20041;-60
2023/05/14 04:50:28;;;;;;;67.90;32.07;;;;;;;;;;5031554;28;20045;-60
2023/05/14 04:52:54;;;;;;;73.47;33.60;;;;;;;;;;5032408;28;20045;-60
2023/05/14 04:55:21;;;;;;;61.43;30.03;;;;;;;;;;5031357;28;20049;-60
2023/05/14 04:57:48;;;;;;;58.73;30.33;;;;;;;;;;5031886;28;20052;-60
2023/05/14 05:00:14;;;;;;;61.27;29.87;;;;;;;;;;5041544;28;20522;-60
2023/05/14 05:02:40;;;;;;;57.47;29.50;;;;;;;;;;5061305;28;20363;-60
2023/05/14 05:05:07;;;;;;;54.90;30.87;;;;;;;;;;5061518;28;20163;-60
2023/05/14 05:07:33;;;;;;;53.83;28.33;;;;;;;;;;5060598;28;20045;-60
2023/05/14 05:09:59;;;;;;;51.27;27.90;;;;;;;;;;5061779;28;20052;-60
2023/05/14 05:12:28;;;;;;;64.57;29.97;;;;;;;;;;5058909;28;20051;-60
2023/05/14 05:14:54;;;;;;;54.90;29.77;;;;;;;;;;5055898;28;20041;-60
2023/05/14 05:17:20;;;;;;;54.73;27.47;;;;;;;;;;5056824;28;20091;-60
2023/05/14 05:19:47;;;;;;;53.67;28.43;;;;;;;;;;5060184;28;20048;-60
2023/05/14 05:22:13;;;;;;;61.00;30.47;;;;;;;;;;5066741;28;20032;-60
2023/05/14 05:24:39;;;;;;;57.13;28.13;;;;;;;;;;5062084;28;20047;-60
2023/05/14 05:27:05;;;;;;;52.37;26.17;;;;;;;;;;5057916;28;20076;-60
2023/05/14 05:29:31;;;;;;;51.20;25.27;;;;;;;;;;5059811;28;20044;-61
2023/05/14 05:31:57;;;;;;;51.93;26.80;;;;;;;;;;5057846;28;20047;-60
2023/05/14 05:34:23;;;;;;;51.27;24.60;;;;;;;;;;5057982;28;20044;-61
2023/05/14 05:36:50;;;;;;;48.07;26.67;;;;;;;;;;5057772;28;20053;-60
2023/05/14 05:39:16;;;;;;;50.80;25.50;;;;;;;;;;5057946;28;20534;-60
2023/05/14 05:41:43;;;;;;;51.37;26.10;;;;;;;;;;5058988;28;20040;-60
2023/05/14 05:44:09;;;;;;;49.03;24.87;;;;;;;;;;5059236;28;20056;-60
2023/05/14 05:46:35;;;;;;;54.23;25.60;;;;;;;;;;5058605;28;20041;-61
2023/05/14 05:49:01;;;;;;;49.63;25.60;;;;;;;;;;5057248;28;20148;-61
2023/05/14 05:51:27;;;;;;;36.80;22.07;;;;;;;;;;5058236;28;20052;-60
2023/05/14 05:53:53;;;;;;;38.93;22.63;;;;;;;;;;5057963;28;20517;-61
2023/05/14 05:56:20;;;;;;;42.70;23.20;;;;;;;;;;5057184;28;20095;-62
2023/05/14 05:58:47;;;;;;;42.33;22.70;;;;;;;;;;5055569;28;20475;-61
2023/05/14 06:01:13;;;;;;;39.80;21.27;;;;;;;;;;5057217;28;20052;-60
2023/05/14 06:03:39;;;;;;;42.47;23.47;;;;;;;;;;5057956;28;20041;-60
2023/05/14 06:06:05;;;;;;;34.77;22.53;;;;;;;;;;5057560;28;20089;-60
2023/05/14 06:08:31;;;;;;;33.70;20.87;;;;;;;;;;5058958;28;20112;-60
2023/05/14 06:10:58;;;;;;;41.10;22.23;;;;;;;;;;5054964;28;20072;-60
2023/05/14 06:13:24;;;;;;;36.00;22.60;;;;;;;;;;5058647;28;20099;-60
2023/05/14 06:15:50;;;;;;;35.10;20.37;;;;;;;;;;5054738;28;20051;-60
2023/05/14 06:18:16;;;;;;;39.87;21.33;;;;;;;;;;5048748;28;20095;-60
2023/05/14 06:20:42;;;;;;;37.47;22.00;;;;;;;;;;5049520;28;20045;-60
2023/05/14 06:23:10;;;;;;;36.43;20.77;;;;;;;;;;5049161;28;20479;-61
2023/05/14 06:25:36;;;;;;;35.80;22.27;;;;;;;;;;5031980;28;20432;-60
2023/05/14 06:28:02;;;;;;;32.50;20.53;;;;;;;;;;5035914;28;20053;-61
2023/05/14 06:30:28;;;;;;;33.20;21.20;;;;;;;;;;5068845;28;20037;-61
2023/05/14 06:32:54;;;;;;;31.20;21.53;;;;;;;;;;5068787;28;20075;-61
2023/05/14 06:35:20;;;;;;;27.80;20.00;;;;;;;;;;5069076;28;20056;-61
2023/05/14 06:37:46;;;;;;;30.87;20.83;;;;;;;;;;5069256;28;20051;-61
2023/05/14 06:40:14;;;;;;;31.70;19.93;;;;;;;;;;5059365;28;20450;-61
2023/05/14 06:42:41;;;;;;;30.67;19.03;;;;;;;;;;5038510;28;20072;-61
2023/05/14 06:45:07;;;;;;;24.90;17.73;;;;;;;;;;5053519;28;20703;-60
2023/05/14 06:47:33;;;;;;;26.63;16.93;;;;;;;;;;5057983;28;20052;-61
2023/05/14 06:50:00;;;;;;;30.27;17.63;;;;;;;;;;5054928;28;20554;-60
2023/05/14 06:52:27;;;;;;;27.00;17.13;;;;;;;;;;5057924;28;20040;-62
2023/05/14 06:54:53;;;;;;;19.77;15.23;;;;;;;;;;5053123;28;20045;-61
2023/05/14 06:57:19;;;;;;;21.07;13.20;;;;;;;;;;5048563;28;20041;-60
2023/05/14 06:59:45;;;;;;;26.93;13.90;;;;;;;;;;5056057;28;20041;-60
2023/05/14 07:02:11;;;;;;;23.43;13.60;;;;;;;;;;5056856;28;20049;-60
2023/05/14 07:04:37;;;;;;;21.97;13.47;;;;;;;;;;5055990;28;20060;-60
2023/05/14 07:07:04;;;;;;;19.63;12.80;;;;;;;;;;5051833;28;20040;-61
2023/05/14 07:09:30;;;;;;;21.17;12.10;;;;;;;;;;5045420;28;20561;-61
2023/05/14 07:11:56;;;;;;;17.63;11.83;;;;;;;;;;5048575;28;20071;-61
2023/05/14 07:14:22;;;;;;;15.53;11.80;;;;;;;;;;5040786;28;20099;-61
2023/05/14 07:16:48;;;;;;;15.13;10.80;;;;;;;;;;5050378;28;20616;-61
2023/05/14 07:19:14;;;;;;;18.87;11.07;;;;;;;;;;5057186;28;20045;-61
2023/05/14 07:21:40;;;;;;;19.73;10.50;;;;;;;;;;5057749;28;20040;-62
2023/05/14 07:24:06;;;;;;;17.63;10.73;;;;;;;;;;5057201;28;20099;-60
2023/05/14 07:26:33;;;;;;;18.50;10.47;;;;;;;;;;5062556;28;20048;-60
2023/05/14 07:28:59;;;;;;;14.47;9.87;;;;;;;;;;5068368;28;20476;-60
2023/05/14 07:31:25;;;;;;;23.37;10.87;;;;;;;;;;5061913;28;20531;-61
2023/05/14 07:33:51;;;;;;;15.93;8.97;;;;;;;;;;5047892;28;20049;-60
2023/05/14 07:36:17;;;;;;;14.87;9.23;;;;;;;;;;5048037;28;20045;-60
2023/05/14 07:38:43;;;;;;;13.17;9.73;;;;;;;;;;5063342;28;20044;-61
2023/05/14 07:41:10;;;;;;;15.37;9.90;;;;;;;;;;5068274;28;20791;-60
2023/05/14 07:43:37;;;;;;;16.33;7.47;;;;;;;;;;5068241;28;20044;-60
2023/05/14 07:46:03;;;;;;;15.17;7.87;;;;;;;;;;5063372;28;20052;-60
2023/05/14 07:48:29;;;;;;;14.73;8.30;;;;;;;;;;5047598;28;20067;-60
2023/05/14 07:50:55;;;;;;;15.13;7.63;;;;;;;;;;5048332;28;20041;-61
2023/05/14 07:53:22;;;;;;;12.83;6.90;;;;;;;;;;5048782;28;20056;-61
2023/05/14 07:55:48;;;;;;;13.93;6.40;;;;;;;;;;5050713;28;20091;-61
2023/05/14 07:58:15;;;;;;;11.27;5.97;;;;;;;;;;5051743;28;20079;-61
2023/05/14 08:00:41;;;;;;;12.20;6.40;;;;;;;;;;5052459;28;20049;-61
2023/05/14 08:03:07;;;;;;;15.10;6.10;;;;;;;;;;5051360;28;20068;-62
2023/05/14 08:05:33;;;;;;;13.50;6.23;;;;;;;;;;5051319;28;20427;-61
2023/05/14 08:07:59;;;;;;;12.20;5.73;;;;;;;;;;5051761;28;20041;-61
2023/05/14 08:10:25;;;;;;;9.43;4.97;;;;;;;;;;5051943;28;20523;-61
2023/05/14 08:12:51;;;;;;;12.00;5.70;;;;;;;;;;5051230;28;20060;-60
2023/05/14 08:15:17;;;;;;;13.17;5.30;;;;;;;;;;5051825;28;20388;-61
2023/05/14 08:17:43;;;;;;;13.77;5.53;;;;;;;;;;5063108;28;20421;-61
2023/05/14 08:20:10;;;;;;;13.80;6.03;;;;;;;;;;5058905;28;20037;-61
2023/05/14 08:22:36;;;;;;;10.83;4.70;;;;;;;;;;5050395;28;20052;-60
2023/05/14 08:25:04;;;;;;;11.43;4.80;;;;;;;;;;5057974;28;20051;-60
2023/05/14 08:27:30;;;;;;;13.17;5.50;;;;;;;;;;5059364;28;20044;-60
2023/05/14 08:29:56;;;;;;;12.23;4.57;;;;;;;;;;5057535;28;20045;-61
2023/05/14 08:32:23;;;;;;;13.13;5.00;;;;;;;;;;5057417;28;20050;-61
2023/05/14 08:34:52;;;;;;;11.83;4.73;;;;;;;;;;5057355;28;20374;-61
2023/05/14 08:37:18;;;;;;;10.33;4.73;;;;;;;;;;5056539;28;20052;-61
2023/05/14 08:39:44;;;;;;;11.70;4.70;;;;;;;;;;5057370;28;20044;-61
2023/05/14 08:42:12;;;;;;;11.93;4.77;;;;;;;;;;5057493;28;20044;-61
2023/05/14 08:44:56;;;;;;;8.27;4.10;;;;;;;;;;5054630;28;20083;-61
2023/05/14 08:47:23;;;;;;;11.20;4.40;;;;;;;;;;5057555;28;20057;-61
2023/05/14 08:49:52;;;;;;;11.27;4.13;;;;;;;;;;5056982;28;20067;-61
2023/05/14 08:52:19;;;;;;;9.17;3.50;;;;;;;;;;5055723;28;20568;-62
2023/05/14 08:54:46;;;;;;;13.47;4.37;;;;;;;;;;5064415;28;20040;-61
2023/05/14 08:57:12;;;;;;;10.03;3.80;;;;;;;;;;5057787;28;20076;-61
2023/05/14 08:59:38;;;;;;;8.77;3.40;;;;;;;;;;5059588;28;20045;-62
2023/05/14 09:02:05;;;;;;;10.70;3.93;;;;;;;;;;5059067;28;20033;-61
2023/05/14 09:04:31;;;;;;;12.57;4.43;;;;;;;;;;5057905;28;20056;-62
2023/05/14 09:06:59;;;;;;;8.77;3.90;;;;;;;;;;5058755;28;20065;-62
2023/05/14 09:09:25;;;;;;;12.13;4.77;;;;;;;;;;5059774;28;20461;-61
2023/05/14 09:11:52;;;;;;;13.20;4.37;;;;;;;;;;5058794;28;20045;-61
2023/05/14 09:14:19;;;;;;;13.13;4.27;;;;;;;;;;5062150;28;20055;-61
2023/05/14 09:16:46;;;;;;;8.23;4.00;;;;;;;;;;5059096;28;20048;-61
2023/05/14 09:19:13;;;;;;;8.67;4.33;;;;;;;;;;5060448;28;20122;-61
2023/05/14 09:21:40;;;;;;;11.83;4.30;;;;;;;;;;5058740;28;20037;-61
2023/05/14 09:24:06;;;;;;;8.13;3.90;;;;;;;;;;5057808;28;20099;-59
2023/05/14 09:26:35;;;;;;;12.53;4.40;;;;;;;;;;5060513;28;20076;-60
2023/05/14 09:29:02;;;;;;;8.67;3.60;;;;;;;;;;5057568;28;20621;-60
2023/05/14 09:31:31;;;;;;;12.40;4.20;;;;;;;;;;5058619;28;20071;-60
2023/05/14 09:33:58;;;;;;;12.23;4.05;;;;;;;;;;5064833;28;20640;-60
2023/05/14 09:36:25;;;;;;;11.27;4.20;;;;;;;;;;5068922;28;20508;-60
2023/05/14 09:38:52;;;;;;;12.05;4.53;;;;;;;;;;5055128;28;20044;-60
2023/05/14 09:41:19;;;;;;;9.18;4.18;;;;;;;;;;5055133;28;20435;-60
2023/05/14 09:43:45;;;;;;;8.32;4.10;;;;;;;;;;5061873;28;20139;-60
2023/05/14 09:46:11;;;;;;;10.77;4.70;;;;;;;;;;5069589;28;20041;-60
2023/05/14 09:48:37;;;;;;;8.43;4.32;;;;;;;;;;5069782;28;20040;-61
2023/05/14 09:51:04;;;;;;;9.93;4.20;;;;;;;;;;5069875;28;20422;-60
2023/05/14 09:53:32;;;;;;;8.50;4.72;;;;;;;;;;5064287;28;20128;-60
2023/05/14 09:55:59;;;;;;;8.43;4.60;;;;;;;;;;5060071;28;20116;-60
2023/05/14 09:58:25;;;;;;;10.48;4.43;;;;;;;;;;5066154;28;20055;-61
2023/05/14 10:00:52;;;;;;;14.95;6.03;;;;;;;;;;5069505;28;20103;-61
2023/05/14 10:03:18;;;;;;;11.45;5.57;;;;;;;;;;5069273;28;20066;-60
2023/05/14 10:05:44;;;;;;;9.48;5.00;;;;;;;;;;5069050;28;20049;-60
2023/05/14 10:08:19;;;;;;;9.27;4.60;;;;;;;;;;5061880;28;20037;-61
2023/05/14 10:10:45;;;;;;;9.80;4.55;;;;;;;;;;5057893;28;20113;-61
2023/05/14 10:13:13;;;;;;;9.80;4.32;;;;;;;;;;5059935;28;20044;-61
2023/05/14 10:15:42;;;;;;;8.98;4.30;;;;;;;;;;5058446;28;20118;-60
2023/05/14 10:18:12;;;;;;;10.25;4.55;;;;;;;;;;5055617;28;20500;-61
2023/05/14 10:20:40;;;;;;;11.15;4.07;;;;;;;;;;5057499;28;20759;-61
2023/05/14 10:23:06;;;;;;;8.23;4.55;;;;;;;;;;5059673;28;20044;-61
2023/05/14 10:25:33;;;;;;;11.23;3.92;;;;;;;;;;5057770;28;20407;-61
2023/05/14 10:27:59;;;;;;;9.52;4.85;;;;;;;;;;5068537;28;20461;-60
2023/05/14 10:30:25;;;;;;;10.80;4.85;;;;;;;;;;5068819;28;20045;-60
2023/05/14 10:33:07;;;;;;;13.13;4.38;;;;;;;;;;5068572;28;20064;-61
2023/05/14 10:35:50;;;;;;;8.95;4.60;;;;;;;;;;5068118;28;20036;-61
2023/05/14 10:38:16;;;;;;;7.90;4.53;;;;;;;;;;5062541;28;20440;-61
2023/05/14 10:40:42;;;;;;;12.25;4.78;;;;;;;;;;5059828;28;20044;-62
2023/05/14 10:43:10;;;;;;;10.88;5.28;;;;;;;;;;5066355;28;20051;-62
2023/05/14 10:45:36;;;;;;;10.48;5.30;;;;;;;;;;5068879;28;20049;-60
2023/05/14 10:48:02;;;;;;;10.65;4.80;;;;;;;;;;5068664;28;20144;-61
2023/05/14 10:50:29;;;;;;;8.75;4.15;;;;;;;;;;5068384;28;20041;-61
2023/05/14 10:52:56;;;;;;;7.63;3.70;;;;;;;;;;5068336;28;20040;-60
2023/05/14 10:55:22;;;;;;;8.73;4.22;;;;;;;;;;5062203;28;20037;-60
2023/05/14 10:57:48;;;;;;;10.05;4.70;;;;;;;;;;5056359;28;20049;-61
2023/05/14 11:00:15;;;;;;;8.68;4.13;;;;;;;;;;5053360;28;20041;-61
2023/05/14 11:02:42;;;;;;;7.80;4.03;;;;;;;;;;5057209;28;20065;-61
2023/05/14 11:05:10;;;;;;;8.73;3.97;;;;;;;;;;5058846;28;20119;-62
2023/05/14 11:07:37;;;;;;;11.52;4.20;;;;;;;;;;5058713;28;20064;-61
2023/05/14 11:10:17;;;;;;;8.35;4.10;;;;;;;;;;5056567;28;20040;-61
2023/05/14 11:12:44;;;;;;;7.43;3.83;;;;;;;;;;5056238;28;20041;-61
2023/05/14 11:15:11;;;;;;;9.05;3.30;;;;;;;;;;5048953;28;20049;-61
2023/05/14 11:17:38;;;;;;;5.65;2.78;;;;;;;;;;5048662;28;20049;-61
2023/05/14 11:20:05;;;;;;;5.78;2.92;;;;;;;;;;5057299;28;20409;-61
2023/05/14 11:22:31;;;;;;;10.23;2.83;;;;;;;;;;5055936;28;20044;-61
2023/05/14 11:24:57;;;;;;;7.93;3.38;;;;;;;;;;5057506;28;20440;-61
2023/05/14 11:27:23;;;;;;;9.57;3.97;;;;;;;;;;5052693;28;20136;-62
2023/05/14 11:29:50;;;;;;;8.30;3.95;;;;;;;;;;5060604;28;20075;-62
2023/05/14 11:32:16;;;;;;;6.50;3.50;;;;;;;;;;5060229;28;20084;-61
2023/05/14 11:34:43;;;;;;;7.32;3.65;;;;;;;;;;5061190;28;20099;-61
2023/05/14 11:37:11;;;;;;;7.82;3.58;;;;;;;;;;5060687;28;20183;-61
2023/05/14 11:39:37;;;;;;;9.45;3.60;;;;;;;;;;5060002;28;20045;-61
2023/05/14 11:42:04;;;;;;;4.72;2.63;;;;;;;;;;5059075;28;20033;-61
2023/05/14 11:44:33;;;;;;;8.30;3.03;;;;;;;;;;5059685;28;20495;-61
2023/05/14 11:47:03;;;;;;;9.30;4.18;;;;;;;;;;5064550;28;20049;-61
2023/05/14 11:49:30;;;;;;;6.10;3.28;;;;;;;;;;5071102;28;20123;-61
2023/05/14 11:52:00;;;;;;;7.53;3.50;;;;;;;;;;5067409;28;20045;-61
2023/05/14 11:54:27;;;;;;;4.43;2.38;;;;;;;;;;5060941;28;20580;-61
2023/05/14 11:56:54;;;;;;;10.07;2.70;;;;;;;;;;5059132;28;20044;-61
2023/05/14 11:59:20;;;;;;;9.52;3.03;;;;;;;;;;5060458;28;20041;-62
2023/05/14 12:01:46;;;;;;;7.63;3.03;;;;;;;;;;5059652;28;20041;-62
2023/05/14 12:04:17;;;;;;;6.35;2.45;;;;;;;;;;5058801;28;20407;-62
2023/05/14 12:06:45;;;;;;;7.43;2.80;;;;;;;;;;5063193;28;20461;-62
2023/05/14 12:09:15;;;;;;;7.45;2.45;;;;;;;;;;5069562;28;20090;-62
2023/05/14 12:11:41;;;;;;;6.18;2.67;;;;;;;;;;5058351;28;20789;-62
2023/05/14 12:14:11;;;;;;;9.63;2.97;;;;;;;;;;5061109;28;20041;-62
2023/05/14 12:16:40;;;;;;;6.65;3.00;;;;;;;;;;5060250;28;20052;-62
2023/05/14 12:19:07;;;;;;;7.30;2.30;;;;;;;;;;5059863;28;20442;-62
2023/05/14 12:21:34;;;;;;;8.45;2.45;;;;;;;;;;5058524;28;20052;-62
2023/05/14 12:24:00;;;;;;;7.03;2.70;;;;;;;;;;5052327;28;20041;-62
2023/05/14 12:26:27;;;;;;;5.50;2.60;;;;;;;;;;5052812;28;20443;-62
2023/05/14 12:29:00;;;;;;;7.00;3.08;;;;;;;;;;5052793;28;20041;-62
2023/05/14 12:31:30;;;;;;;5.53;2.65;;;;;;;;;;5060963;28;20060;-62
2023/05/14 12:33:56;;;;;;;7.70;2.63;;;;;;;;;;5058741;28;20052;-62
2023/05/14 12:36:22;;;;;;;6.85;2.75;;;;;;;;;;5064433;28;20825;-62
2023/05/14 12:38:49;;;;;;;5.97;2.35;;;;;;;;;;5064486;28;20044;-62
2023/05/14 12:41:15;;;;;;;9.10;2.60;;;;;;;;;;5060017;28;20051;-62
2023/05/14 12:43:42;;;;;;;6.78;2.70;;;;;;;;;;5052470;28;20045;-62
2023/05/14 12:46:08;;;;;;;5.20;2.70;;;;;;;;;;5056798;28;20041;-62
2023/05/14 12:48:34;;;;;;;4.30;2.45;;;;;;;;;;5059612;28;20064;-62
2023/05/14 12:51:00;;;;;;;4.25;3.08;;;;;;;;;;5060054;28;20033;-62
2023/05/14 12:53:26;;;;;;;6.20;2.22;;;;;;;;;;5055834;28;20043;-62
2023/05/14 12:55:54;;;;;;;4.68;2.40;;;;;;;;;;5059717;28;20044;-62
2023/05/14 12:58:20;;;;;;;6.25;2.75;;;;;;;;;;5052916;28;20059;-62
2023/05/14 13:00:46;;;;;;;4.97;2.40;;;;;;;;;;5060408;28;20062;-62
2023/05/14 13:03:12;;;;;;;6.15;2.78;;;;;;;;;;5061517;28;20044;-62
2023/05/14 13:05:38;;;;;;;8.20;2.63;;;;;;;;;;5062234;28;20090;-62
2023/05/14 13:08:04;;;;;;;6.88;2.65;;;;;;;;;;5063201;28;20041;-62
2023/05/14 13:10:30;;;;;;;5.75;2.65;;;;;;;;;;5061551;28;20835;-62
2023/05/14 13:12:56;;;;;;;6.78;2.10;;;;;;;;;;5062476;28;20032;-62
2023/05/14 13:15:23;;;;;;;7.57;3.15;;;;;;;;;;5061189;28;20559;-62
2023/05/14 13:17:49;;;;;;;7.63;2.90;;;;;;;;;;5060321;28;20045;-62
2023/05/14 13:20:17;;;;;;;7.32;3.10;;;;;;;;;;5058541;28;20595;-62
2023/05/14 13:22:43;;;;;;;5.25;2.85;;;;;;;;;;5059886;28;20127;-62
2023/05/14 13:25:09;;;;;;;6.93;3.03;;;;;;;;;;5059779;28;20037;-62
2023/05/14 13:27:35;;;;;;;7.00;2.65;;;;;;;;;;5060996;28;20040;-62
2023/05/14 13:30:03;;;;;;;7.35;3.25;;;;;;;;;;5058817;28;20419;-62
2023/05/14 13:32:29;;;;;;;5.80;3.10;;;;;;;;;;5058984;28;20082;-62
2023/05/14 13:34:55;;;;;;;7.13;2.90;;;;;;;;;;5055146;28;20033;-62
2023/05/14 13:37:21;;;;;;;5.13;2.47;;;;;;;;;;5059037;28;20053;-62
2023/05/14 13:39:48;;;;;;;5.60;2.72;;;;;;;;;;5060111;28;20055;-62
2023/05/14 13:42:14;;;;;;;5.20;2.30;;;;;;;;;;5058713;28;20526;-62
2023/05/14 13:44:40;;;;;;;4.97;2.45;;;;;;;;;;5058706;28;20483;-62
2023/05/14 13:47:06;;;;;;;6.18;2.40;;;;;;;;;;5058669;28;20450;-62
2023/05/14 13:49:32;;;;;;;8.98;2.65;;;;;;;;;;5061007;28;20052;-63
2023/05/14 13:51:58;;;;;;;6.22;3.03;;;;;;;;;;5060069;28;20483;-62
2023/05/14 13:54:24;;;;;;;7.78;2.65;;;;;;;;;;5062101;28;20075;-62
2023/05/14 13:56:50;;;;;;;7.75;2.70;;;;;;;;;;5056224;28;20487;-62
2023/05/14 13:59:17;;;;;;;7.05;2.80;;;;;;;;;;5060213;28;20072;-62
2023/05/14 14:01:43;;;;;;;6.82;2.58;;;;;;;;;;5060934;28;20041;-62
2023/05/14 14:04:09;;;;;;;7.97;3.10;;;;;;;;;;5057682;28;20130;-62
2023/05/14 14:06:35;;;;;;;7.05;2.70;;;;;;;;;;5059545;28;20049;-62
2023/05/14 14:09:01;;;;;;;6.10;2.40;;;;;;;;;;5058089;28;20051;-62
2023/05/14 14:11:28;;;;;;;8.68;2.88;;;;;;;;;;5058006;28;20827;-62
2023/05/14 14:13:54;;;;;;;7.57;2.70;;;;;;;;;;5059575;28;20040;-62
2023/05/14 14:16:20;;;;;;;8.27;2.38;;;;;;;;;;5059455;28;20099;-62
2023/05/14 14:18:46;;;;;;;6.60;2.78;;;;;;;;;;5057934;28;20388;-62
2023/05/14 14:21:12;;;;;;;5.75;2.83;;;;;;;;;;5058904;28;20618;-62
2023/05/14 14:23:38;;;;;;;5.75;2.50;;;;;;;;;;5058058;28;20441;-62